| time (UTC) | temp F | wind direction | speed knots | gust knots | rain 1hr in | rain 24hr in | rain mn in | humidity % | barometer mb |
| 20260508204535 | 64 | 299 | 3.5 | 0.0 | 0.00 | 0.00 | 0.00 | 51 | 1014.1 |
| 20260508203016 | 65 | 277 | 4.3 | 0.0 | 0.00 | 0.00 | 0.00 | 46 | 1014.1 |
| 20260508201516 | 64 | 281 | 4.3 | 0.0 | 0.00 | 0.00 | 0.00 | 50 | 1014.1 |
| 20260508200110 | 64 | 292 | 3.5 | 0.0 | 0.00 | 0.00 | 0.00 | 49 | 1013.9 |
| 20260508194600 | 66 | 199 | 1.7 | 0.0 | 0.00 | 0.00 | 0.00 | 38 | 1013.8 |
| 20260508193048 | 66 | 200 | 2.6 | 0.0 | 0.00 | 0.00 | 0.00 | 40 | 1013.9 |
| 20260508191538 | 65 | 225 | 0.9 | 0.0 | 0.00 | 0.00 | 0.00 | 37 | 1014.0 |
| 20260508190020 | 65 | 245 | 1.7 | 0.0 | 0.00 | 0.00 | 0.00 | 36 | 1014.1 |
| 20260508184525 | 65 | 222 | 1.7 | 0.0 | 0.00 | 0.00 | 0.00 | 36 | 1014.2 |
| 20260508183137 | 64 | 213 | 0.9 | 0.0 | 0.00 | 0.00 | 0.00 | 35 | 1014.2 |
| 20260508181612 | 64 | 223 | 1.7 | 0.0 | 0.00 | 0.00 | 0.00 | 35 | 1014.1 |
| 20260508180038 | 63 | 223 | 2.6 | 0.0 | 0.00 | 0.00 | 0.00 | 37 | 1014.1 |
| 20260508174538 | 63 | 240 | 3.5 | 0.0 | 0.00 | 0.00 | 0.00 | 40 | 1014.1 |
| 20260508173019 | 64 | 189 | 0.9 | 0.0 | 0.00 | 0.00 | 0.00 | 43 | 1014.0 |
| 20260508171529 | 63 | 198 | 1.7 | 0.0 | 0.00 | 0.00 | 0.00 | 47 | 1014.1 |
| 20260508170001 | 62 | 198 | 0.9 | 0.0 | 0.00 | 0.00 | 0.00 | 52 | 1014.0 |
| 20260508164558 | 61 | 200 | 0.9 | 0.0 | 0.00 | 0.00 | 0.00 | 54 | 1014.1 |
| 20260508163055 | 60 | 200 | 2.6 | 0.0 | 0.00 | 0.00 | 0.00 | 54 | 1014.1 |
| 20260508161552 | 59 | 288 | 0.9 | 0.0 | 0.00 | 0.00 | 0.00 | 64 | 1014.1 |
| 20260508160056 | 59 | 289 | 0.9 | 0.0 | 0.00 | 0.00 | 0.00 | 63 | 1014.2 |
| 20260508154551 | 59 | 289 | 0.0 | 0.0 | 0.00 | 0.00 | 0.00 | 64 | 1014.2 |
| 20260508153046 | 57 | 288 | 0.0 | 0.0 | 0.00 | 0.00 | 0.00 | 71 | 1014.2 |
| 20260508151546 | 55 | 288 | 0.0 | 0.0 | 0.00 | 0.00 | 0.00 | 79 | 1014.2 |
| 20260508150029 | 53 | 288 | 0.0 | 0.0 | 0.00 | 0.00 | 0.00 | 84 | 1014.2 |
| 20260508144536 | 51 | 288 | 0.0 | 0.0 | 0.00 | 0.00 | 0.00 | 88 | 1014.3 |
| 20260508143016 | 50 | 288 | 0.0 | 0.0 | 0.00 | 0.00 | 0.00 | 91 | 1014.2 |
| 20260508141509 | 48 | 288 | 0.0 | 0.0 | 0.00 | 0.00 | 0.00 | 92 | 1014.2 |
| 20260508140056 | 44 | 288 | 0.0 | 0.0 | 0.00 | 0.00 | 0.00 | 91 | 1014.3 |
| 20260508134546 | 42 | 288 | 0.0 | 0.0 | 0.00 | 0.00 | 0.00 | 91 | 1014.2 |
| 20260508133026 | 42 | 288 | 0.0 | 0.0 | 0.00 | 0.00 | 0.00 | 92 | 1014.0 |
| 20260508131527 | 40 | 288 | 0.0 | 0.0 | 0.00 | 0.00 | 0.00 | 92 | 1014.1 |
| 20260508130010 | 39 | 288 | 0.0 | 0.0 | 0.00 | 0.00 | 0.00 | 91 | 1013.9 |
| 20260508124509 | 39 | 288 | 0.0 | 0.0 | 0.00 | 0.00 | 0.00 | 91 | 1013.8 |
| 20260508123049 | 40 | 288 | 0.0 | 0.0 | 0.00 | 0.00 | 0.00 | 91 | 1013.8 |
| 20260508121549 | 40 | 288 | 0.0 | 0.0 | 0.00 | 0.00 | 0.00 | 90 | 1013.8 |
| 20260508120029 | 40 | 288 | 0.0 | 0.0 | 0.00 | 0.00 | 0.00 | 91 | 1013.7 |
| 20260508114533 | 40 | 288 | 0.0 | 0.0 | 0.00 | 0.00 | 0.00 | 90 | 1013.9 |
| 20260508113010 | 40 | 288 | 0.0 | 0.0 | 0.00 | 0.00 | 0.00 | 90 | 1013.7 |
| 20260508111508 | 40 | 288 | 0.0 | 0.0 | 0.00 | 0.00 | 0.00 | 90 | 1013.6 |
| 20260508110048 | 41 | 288 | 0.0 | 0.0 | 0.00 | 0.00 | 0.00 | 90 | 1013.6 |
| 20260508104555 | 41 | 288 | 0.0 | 0.0 | 0.00 | 0.00 | 0.00 | 89 | 1013.6 |
| 20260508103029 | 41 | 288 | 0.0 | 0.0 | 0.00 | 0.00 | 0.00 | 89 | 1013.6 |
| 20260508101535 | 42 | 288 | 0.0 | 0.0 | 0.00 | 0.00 | 0.00 | 89 | 1013.5 |
| 20260508100009 | 42 | 288 | 0.0 | 0.0 | 0.00 | 0.00 | 0.00 | 89 | 1013.4 |
| 20260508094507 | 42 | 288 | 0.0 | 0.0 | 0.00 | 0.00 | 0.00 | 89 | 1013.4 |
| 20260508093048 | 42 | 288 | 0.0 | 0.0 | 0.00 | 0.00 | 0.00 | 88 | 1013.5 |
| 20260508091547 | 43 | 288 | 0.0 | 0.0 | 0.00 | 0.00 | 0.00 | 88 | 1013.4 |
| 20260508090032 | 43 | 288 | 0.0 | 0.0 | 0.00 | 0.00 | 0.00 | 88 | 1013.3 |
| 20260508084523 | 44 | 288 | 0.0 | 0.0 | 0.00 | 0.00 | 0.00 | 87 | 1013.3 |
| 20260508083006 | 44 | 288 | 0.0 | 0.0 | 0.00 | 0.00 | 0.00 | 87 | 1013.2 |
| 20260508081503 | 44 | 288 | 0.0 | 0.0 | 0.00 | 0.00 | 0.00 | 87 | 1013.2 |
| 20260508080044 | 45 | 288 | 0.0 | 0.0 | 0.00 | 0.00 | 0.00 | 86 | 1013.1 |
| 20260508074541 | 45 | 288 | 0.0 | 0.0 | 0.00 | 0.00 | 0.00 | 86 | 1013.1 |
| 20260508073027 | 46 | 288 | 0.0 | 0.0 | 0.00 | 0.00 | 0.00 | 85 | 1013.2 |
| 20260508071525 | 46 | 288 | 0.0 | 0.0 | 0.00 | 0.00 | 0.00 | 85 | 1013.1 |
| 20260508070023 | 47 | 288 | 0.0 | 0.0 | 0.00 | 0.00 | 0.00 | 84 | 1013.1 |
| 20260508064546 | 47 | 288 | 0.0 | 0.0 | 0.00 | 0.00 | 0.00 | 83 | 1013.0 |
| 20260508063026 | 48 | 288 | 0.0 | 0.0 | 0.00 | 0.00 | 0.00 | 82 | 1013.0 |
| 20260508061517 | 48 | 288 | 0.0 | 0.0 | 0.00 | 0.00 | 0.00 | 82 | 1012.9 |
| 20260508060015 | 48 | 288 | 0.0 | 0.0 | 0.00 | 0.00 | 0.00 | 81 | 1012.8 |
| 20260508054525 | 48 | 288 | 0.0 | 0.0 | 0.00 | 0.00 | 0.00 | 81 | 1012.8 |
| 20260508053053 | 49 | 288 | 0.0 | 0.0 | 0.00 | 0.00 | 0.00 | 79 | 1012.8 |
| 20260508051552 | 51 | 288 | 0.0 | 0.0 | 0.00 | 0.00 | 0.00 | 78 | 1012.8 |
| 20260508050036 | 51 | 288 | 0.0 | 0.0 | 0.00 | 0.00 | 0.00 | 76 | 1012.7 |
| 20260508044528 | 52 | 288 | 0.0 | 0.0 | 0.00 | 0.00 | 0.00 | 73 | 1012.7 |
| 20260508043008 | 53 | 288 | 0.0 | 0.0 | 0.00 | 0.00 | 0.00 | 72 | 1012.6 |
| 20260508041504 | 54 | 288 | 0.0 | 0.0 | 0.00 | 0.00 | 0.00 | 70 | 1012.5 |
| 20260508040053 | 55 | 288 | 0.0 | 0.0 | 0.00 | 0.00 | 0.00 | 69 | 1012.4 |
| 20260508034546 | 56 | 288 | 0.0 | 0.0 | 0.00 | 0.00 | 0.00 | 66 | 1012.2 |
| 20260508033034 | 57 | 288 | 0.0 | 0.0 | 0.00 | 0.00 | 0.00 | 63 | 1012.0 |
| 20260508031531 | 60 | 288 | 0.0 | 0.0 | 0.00 | 0.00 | 0.00 | 61 | 1011.9 |
| 20260508030032 | 61 | 288 | 0.9 | 0.0 | 0.00 | 0.00 | 0.00 | 54 | 1011.8 |
| 20260508024530 | 63 | 288 | 0.0 | 0.0 | 0.00 | 0.00 | 0.00 | 53 | 1011.6 |
| 20260508023030 | 64 | 288 | 1.7 | 0.0 | 0.00 | 0.00 | 0.00 | 49 | 1011.4 |
| 20260508021530 | 66 | 288 | 2.6 | 0.0 | 0.00 | 0.00 | 0.00 | 47 | 1011.5 |
| 20260508020029 | 67 | 288 | 3.5 | 0.0 | 0.00 | 0.00 | 0.00 | 45 | 1011.5 |
| 20260508014529 | 67 | 290 | 4.3 | 0.0 | 0.00 | 0.00 | 0.00 | 45 | 1011.5 |
| 20260508013026 | 68 | 288 | 4.3 | 0.0 | 0.00 | 0.00 | 0.00 | 45 | 1011.6 |
| 20260508011532 | 68 | 269 | 3.5 | 0.0 | 0.00 | 0.00 | 0.00 | 44 | 1011.7 |
| 20260508010020 | 69 | 289 | 4.3 | 0.0 | 0.00 | 0.00 | 0.00 | 42 | 1011.8 |
| 20260508004506 | 69 | 289 | 4.3 | 0.0 | 0.00 | 0.00 | 0.00 | 38 | 1011.9 |
| 20260508003107 | 69 | 294 | 4.3 | 0.0 | 0.00 | 0.00 | 0.00 | 38 | 1011.9 |
| 20260508001548 | 68 | 297 | 6.1 | 0.0 | 0.00 | 0.00 | 0.00 | 36 | 1011.8 |
| 20260508000105 | 69 | 285 | 5.2 | 0.0 | 0.00 | 0.00 | 0.00 | 37 | 1011.8 |
| 20260507234535 | 69 | 280 | 6.1 | 0.0 | 0.00 | 0.00 | 0.00 | 36 | 1011.8 |
| 20260507233034 | 69 | 304 | 4.3 | 0.0 | 0.00 | 0.00 | 0.00 | 39 | 1011.7 |
| 20260507231510 | 69 | 281 | 5.2 | 0.0 | 0.00 | 0.00 | 0.00 | 37 | 1011.8 |
| 20260507230009 | 69 | 276 | 6.1 | 0.0 | 0.00 | 0.00 | 0.00 | 41 | 1011.8 |
| 20260507224552 | 69 | 281 | 6.1 | 0.0 | 0.00 | 0.00 | 0.00 | 39 | 1012.0 |
| 20260507223051 | 70 | 290 | 3.5 | 0.0 | 0.00 | 0.00 | 0.00 | 40 | 1012.1 |
| 20260507221538 | 69 | 283 | 2.6 | 0.0 | 0.00 | 0.00 | 0.00 | 40 | 1012.2 |
| 20260507220038 | 69 | 294 | 5.2 | 0.0 | 0.00 | 0.00 | 0.00 | 40 | 1012.3 |
| 20260507214539 | 69 | 277 | 4.3 | 0.0 | 0.00 | 0.00 | 0.00 | 37 | 1012.4 |
| 20260507213040 | 68 | 294 | 3.5 | 0.0 | 0.00 | 0.00 | 0.00 | 40 | 1012.5 |
| 20260507211546 | 68 | 306 | 3.5 | 0.0 | 0.00 | 0.00 | 0.00 | 45 | 1012.7 |
| 20260507210034 | 68 | 294 | 0.9 | 0.0 | 0.00 | 0.00 | 0.00 | 46 | 1012.8 |